sensor_id;sensor_type;location;lat;lon;timestamp;P1;durP1;ratioP1;P2;durP2;ratioP2
32138;SDS011;18644;48.700;9.210;2023-06-04T00:02:14;4.10;;;3.17;;
32138;SDS011;18644;48.700;9.210;2023-06-04T00:04:43;4.68;;;3.53;;
32138;SDS011;18644;48.700;9.210;2023-06-04T00:07:10;3.80;;;3.20;;
32138;SDS011;18644;48.700;9.210;2023-06-04T00:09:37;4.25;;;3.25;;
32138;SDS011;18644;48.700;9.210;2023-06-04T00:12:04;4.45;;;2.95;;
32138;SDS011;18644;48.700;9.210;2023-06-04T00:14:31;4.13;;;3.03;;
32138;SDS011;18644;48.700;9.210;2023-06-04T00:16:58;4.25;;;3.38;;
32138;SDS011;18644;48.700;9.210;2023-06-04T00:19:25;4.80;;;3.03;;
32138;SDS011;18644;48.700;9.210;2023-06-04T00:21:53;4.53;;;3.40;;
32138;SDS011;18644;48.700;9.210;2023-06-04T00:24:20;6.90;;;3.67;;
32138;SDS011;18644;48.700;9.210;2023-06-04T00:26:47;5.70;;;4.00;;
32138;SDS011;18644;48.700;9.210;2023-06-04T00:29:14;4.13;;;3.30;;
32138;SDS011;18644;48.700;9.210;2023-06-04T00:31:41;4.13;;;3.47;;
32138;SDS011;18644;48.700;9.210;2023-06-04T00:34:08;5.25;;;3.47;;
32138;SDS011;18644;48.700;9.210;2023-06-04T00:36:36;4.78;;;3.60;;
32138;SDS011;18644;48.700;9.210;2023-06-04T00:39:04;6.80;;;3.13;;
32138;SDS011;18644;48.700;9.210;2023-06-04T00:41:31;5.55;;;3.80;;
32138;SDS011;18644;48.700;9.210;2023-06-04T00:43:58;4.60;;;3.42;;
32138;SDS011;18644;48.700;9.210;2023-06-04T00:46:26;5.15;;;3.65;;
32138;SDS011;18644;48.700;9.210;2023-06-04T00:48:56;5.20;;;3.65;;
32138;SDS011;18644;48.700;9.210;2023-06-04T00:51:23;4.35;;;3.20;;
32138;SDS011;18644;48.700;9.210;2023-06-04T00:53:51;4.80;;;3.55;;
32138;SDS011;18644;48.700;9.210;2023-06-04T00:56:19;4.07;;;3.25;;
32138;SDS011;18644;48.700;9.210;2023-06-04T00:58:46;3.85;;;3.08;;
32138;SDS011;18644;48.700;9.210;2023-06-04T01:01:17;5.07;;;3.78;;
32138;SDS011;18644;48.700;9.210;2023-06-04T01:03:51;5.65;;;2.92;;
32138;SDS011;18644;48.700;9.210;2023-06-04T01:06:24;3.80;;;2.88;;
32138;SDS011;18644;48.700;9.210;2023-06-04T01:08:59;4.90;;;3.40;;
32138;SDS011;18644;48.700;9.210;2023-06-04T01:11:32;4.90;;;3.60;;
32138;SDS011;18644;48.700;9.210;2023-06-04T01:14:00;3.58;;;2.90;;
32138;SDS011;18644;48.700;9.210;2023-06-04T01:16:28;6.47;;;3.40;;
32138;SDS011;18644;48.700;9.210;2023-06-04T01:19:04;4.28;;;3.20;;
32138;SDS011;18644;48.700;9.210;2023-06-04T01:21:46;3.75;;;3.08;;
32138;SDS011;18644;48.700;9.210;2023-06-04T01:24:16;5.25;;;3.17;;
32138;SDS011;18644;48.700;9.210;2023-06-04T01:26:49;6.43;;;3.58;;
32138;SDS011;18644;48.700;9.210;2023-06-04T01:29:17;3.88;;;3.28;;
32138;SDS011;18644;48.700;9.210;2023-06-04T01:31:44;4.15;;;3.20;;
32138;SDS011;18644;48.700;9.210;2023-06-04T01:34:11;4.18;;;3.10;;
32138;SDS011;18644;48.700;9.210;2023-06-04T01:36:38;4.03;;;3.60;;
32138;SDS011;18644;48.700;9.210;2023-06-04T01:39:05;3.78;;;3.15;;
32138;SDS011;18644;48.700;9.210;2023-06-04T01:41:32;6.93;;;3.42;;
32138;SDS011;18644;48.700;9.210;2023-06-04T01:44:00;6.28;;;3.22;;
32138;SDS011;18644;48.700;9.210;2023-06-04T01:46:27;4.45;;;3.00;;
32138;SDS011;18644;48.700;9.210;2023-06-04T01:48:54;4.60;;;3.20;;
32138;SDS011;18644;48.700;9.210;2023-06-04T01:51:20;4.35;;;3.13;;
32138;SDS011;18644;48.700;9.210;2023-06-04T01:53:47;4.50;;;3.05;;
32138;SDS011;18644;48.700;9.210;2023-06-04T01:56:15;3.92;;;2.95;;
32138;SDS011;18644;48.700;9.210;2023-06-04T01:58:42;4.35;;;2.70;;
32138;SDS011;18644;48.700;9.210;2023-06-04T02:01:10;5.78;;;3.03;;
32138;SDS011;18644;48.700;9.210;2023-06-04T02:03:37;6.85;;;3.20;;
32138;SDS011;18644;48.700;9.210;2023-06-04T02:06:05;3.65;;;2.95;;
32138;SDS011;18644;48.700;9.210;2023-06-04T02:08:32;3.30;;;3.00;;
32138;SDS011;18644;48.700;9.210;2023-06-04T02:11:00;5.03;;;3.10;;
32138;SDS011;18644;48.700;9.210;2023-06-04T02:13:27;2.92;;;2.63;;
32138;SDS011;18644;48.700;9.210;2023-06-04T02:15:54;3.58;;;2.60;;
32138;SDS011;18644;48.700;9.210;2023-06-04T02:18:22;3.80;;;2.75;;
32138;SDS011;18644;48.700;9.210;2023-06-04T02:20:50;3.25;;;2.88;;
32138;SDS011;18644;48.700;9.210;2023-06-04T02:23:17;3.78;;;2.80;;
32138;SDS011;18644;48.700;9.210;2023-06-04T02:25:45;3.65;;;2.75;;
32138;SDS011;18644;48.700;9.210;2023-06-04T02:28:14;7.22;;;2.90;;
32138;SDS011;18644;48.700;9.210;2023-06-04T02:30:41;4.10;;;2.92;;
32138;SDS011;18644;48.700;9.210;2023-06-04T02:33:10;3.88;;;2.75;;
32138;SDS011;18644;48.700;9.210;2023-06-04T02:35:38;4.85;;;2.78;;
32138;SDS011;18644;48.700;9.210;2023-06-04T02:38:06;3.65;;;2.60;;
32138;SDS011;18644;48.700;9.210;2023-06-04T02:40:33;4.07;;;2.90;;
32138;SDS011;18644;48.700;9.210;2023-06-04T02:43:00;3.38;;;2.60;;
32138;SDS011;18644;48.700;9.210;2023-06-04T02:45:27;4.03;;;3.03;;
32138;SDS011;18644;48.700;9.210;2023-06-04T02:47:54;3.15;;;2.70;;
32138;SDS011;18644;48.700;9.210;2023-06-04T02:50:21;3.97;;;2.75;;
32138;SDS011;18644;48.700;9.210;2023-06-04T02:52:49;2.78;;;2.30;;
32138;SDS011;18644;48.700;9.210;2023-06-04T02:55:16;5.20;;;2.75;;
32138;SDS011;18644;48.700;9.210;2023-06-04T02:57:43;5.22;;;3.03;;
32138;SDS011;18644;48.700;9.210;2023-06-04T03:00:10;4.10;;;2.70;;
32138;SDS011;18644;48.700;9.210;2023-06-04T03:02:40;2.80;;;2.50;;
32138;SDS011;18644;48.700;9.210;2023-06-04T03:05:08;3.50;;;2.40;;
32138;SDS011;18644;48.700;9.210;2023-06-04T03:07:37;3.28;;;2.58;;
32138;SDS011;18644;48.700;9.210;2023-06-04T03:10:07;3.35;;;2.58;;
32138;SDS011;18644;48.700;9.210;2023-06-04T03:12:35;2.97;;;2.45;;
32138;SDS011;18644;48.700;9.210;2023-06-04T03:15:03;2.13;;;1.92;;
32138;SDS011;18644;48.700;9.210;2023-06-04T03:17:31;3.47;;;2.40;;
32138;SDS011;18644;48.700;9.210;2023-06-04T03:19:58;3.25;;;2.38;;
32138;SDS011;18644;48.700;9.210;2023-06-04T03:22:25;2.85;;;2.55;;
32138;SDS011;18644;48.700;9.210;2023-06-04T03:24:53;3.90;;;2.55;;
32138;SDS011;18644;48.700;9.210;2023-06-04T03:27:21;3.88;;;2.70;;
32138;SDS011;18644;48.700;9.210;2023-06-04T03:29:48;3.97;;;2.60;;
32138;SDS011;18644;48.700;9.210;2023-06-04T03:32:15;3.95;;;2.75;;
32138;SDS011;18644;48.700;9.210;2023-06-04T03:34:43;4.28;;;2.90;;
32138;SDS011;18644;48.700;9.210;2023-06-04T03:37:10;5.15;;;2.92;;
32138;SDS011;18644;48.700;9.210;2023-06-04T03:39:37;3.22;;;2.50;;
32138;SDS011;18644;48.700;9.210;2023-06-04T03:42:04;6.78;;;2.45;;
32138;SDS011;18644;48.700;9.210;2023-06-04T03:44:32;5.10;;;2.47;;
32138;SDS011;18644;48.700;9.210;2023-06-04T03:46:59;3.55;;;2.53;;
32138;SDS011;18644;48.700;9.210;2023-06-04T03:49:26;5.35;;;2.65;;
32138;SDS011;18644;48.700;9.210;2023-06-04T03:51:53;6.22;;;2.72;;
32138;SDS011;18644;48.700;9.210;2023-06-04T03:54:21;5.35;;;2.92;;
32138;SDS011;18644;48.700;9.210;2023-06-04T03:56:48;5.47;;;2.72;;
32138;SDS011;18644;48.700;9.210;2023-06-04T03:59:15;4.57;;;3.10;;
32138;SDS011;18644;48.700;9.210;2023-06-04T04:01:43;4.22;;;2.47;;
32138;SDS011;18644;48.700;9.210;2023-06-04T04:04:10;4.05;;;2.20;;
32138;SDS011;18644;48.700;9.210;2023-06-04T04:06:37;4.47;;;2.22;;
32138;SDS011;18644;48.700;9.210;2023-06-04T04:09:04;3.13;;;2.33;;
32138;SDS011;18644;48.700;9.210;2023-06-04T04:11:31;11.02;;;3.28;;
32138;SDS011;18644;48.700;9.210;2023-06-04T04:13:59;5.00;;;2.45;;
32138;SDS011;18644;48.700;9.210;2023-06-04T04:16:26;6.20;;;2.40;;
32138;SDS011;18644;48.700;9.210;2023-06-04T04:18:55;6.55;;;2.20;;
32138;SDS011;18644;48.700;9.210;2023-06-04T04:21:21;2.50;;;2.30;;
32138;SDS011;18644;48.700;9.210;2023-06-04T04:23:49;2.70;;;1.75;;
32138;SDS011;18644;48.700;9.210;2023-06-04T04:26:17;3.47;;;2.30;;
32138;SDS011;18644;48.700;9.210;2023-06-04T04:28:44;5.07;;;2.00;;
32138;SDS011;18644;48.700;9.210;2023-06-04T04:31:11;3.22;;;2.15;;
32138;SDS011;18644;48.700;9.210;2023-06-04T04:33:38;4.97;;;2.45;;
32138;SDS011;18644;48.700;9.210;2023-06-04T04:36:07;4.10;;;2.60;;
32138;SDS011;18644;48.700;9.210;2023-06-04T04:38:38;3.08;;;2.35;;
32138;SDS011;18644;48.700;9.210;2023-06-04T04:41:06;2.53;;;2.08;;
32138;SDS011;18644;48.700;9.210;2023-06-04T04:43:34;3.08;;;2.42;;
32138;SDS011;18644;48.700;9.210;2023-06-04T04:46:04;2.60;;;1.95;;
32138;SDS011;18644;48.700;9.210;2023-06-04T04:48:31;3.80;;;1.92;;
32138;SDS011;18644;48.700;9.210;2023-06-04T04:50:59;3.83;;;2.50;;
32138;SDS011;18644;48.700;9.210;2023-06-04T04:53:27;2.72;;;2.08;;
32138;SDS011;18644;48.700;9.210;2023-06-04T04:55:54;8.57;;;2.47;;
32138;SDS011;18644;48.700;9.210;2023-06-04T04:58:21;2.75;;;2.13;;
32138;SDS011;18644;48.700;9.210;2023-06-04T05:00:48;3.08;;;2.05;;
32138;SDS011;18644;48.700;9.210;2023-06-04T05:03:15;3.22;;;2.28;;
32138;SDS011;18644;48.700;9.210;2023-06-04T05:05:42;3.05;;;2.15;;
32138;SDS011;18644;48.700;9.210;2023-06-04T05:08:09;5.45;;;2.60;;
32138;SDS011;18644;48.700;9.210;2023-06-04T05:10:37;2.45;;;2.00;;
32138;SDS011;18644;48.700;9.210;2023-06-04T05:13:04;3.17;;;2.65;;
32138;SDS011;18644;48.700;9.210;2023-06-04T05:15:31;2.83;;;2.35;;
32138;SDS011;18644;48.700;9.210;2023-06-04T05:17:58;4.30;;;1.83;;
32138;SDS011;18644;48.700;9.210;2023-06-04T05:20:28;2.53;;;1.88;;
32138;SDS011;18644;48.700;9.210;2023-06-04T05:22:55;3.10;;;2.35;;
32138;SDS011;18644;48.700;9.210;2023-06-04T05:25:22;2.05;;;1.85;;
32138;SDS011;18644;48.700;9.210;2023-06-04T05:27:50;2.67;;;2.00;;
32138;SDS011;18644;48.700;9.210;2023-06-04T05:30:19;2.58;;;2.03;;
32138;SDS011;18644;48.700;9.210;2023-06-04T05:32:46;3.80;;;2.15;;
32138;SDS011;18644;48.700;9.210;2023-06-04T05:35:15;3.40;;;1.85;;
32138;SDS011;18644;48.700;9.210;2023-06-04T05:37:42;2.42;;;1.75;;
32138;SDS011;18644;48.700;9.210;2023-06-04T05:40:10;2.90;;;2.10;;
32138;SDS011;18644;48.700;9.210;2023-06-04T05:42:38;1.80;;;1.63;;
32138;SDS011;18644;48.700;9.210;2023-06-04T05:45:07;3.60;;;1.70;;
32138;SDS011;18644;48.700;9.210;2023-06-04T05:47:35;1.70;;;1.60;;
32138;SDS011;18644;48.700;9.210;2023-06-04T05:50:03;2.10;;;1.85;;
32138;SDS011;18644;48.700;9.210;2023-06-04T05:52:31;2.30;;;1.48;;
32138;SDS011;18644;48.700;9.210;2023-06-04T05:54:59;2.22;;;1.73;;
32138;SDS011;18644;48.700;9.210;2023-06-04T05:57:26;5.28;;;1.95;;
32138;SDS011;18644;48.700;9.210;2023-06-04T05:59:52;3.25;;;2.05;;
32138;SDS011;18644;48.700;9.210;2023-06-04T06:02:21;4.65;;;1.65;;
32138;SDS011;18644;48.700;9.210;2023-06-04T06:04:48;2.88;;;1.63;;
32138;SDS011;18644;48.700;9.210;2023-06-04T06:07:14;1.40;;;1.30;;
32138;SDS011;18644;48.700;9.210;2023-06-04T06:09:42;1.92;;;1.50;;
32138;SDS011;18644;48.700;9.210;2023-06-04T06:12:08;1.50;;;1.40;;
32138;SDS011;18644;48.700;9.210;2023-06-04T06:14:36;1.63;;;1.45;;
32138;SDS011;18644;48.700;9.210;2023-06-04T06:17:03;4.25;;;1.70;;
32138;SDS011;18644;48.700;9.210;2023-06-04T06:19:32;2.67;;;1.58;;
32138;SDS011;18644;48.700;9.210;2023-06-04T06:22:01;2.90;;;1.80;;
32138;SDS011;18644;48.700;9.210;2023-06-04T06:24:28;2.13;;;1.52;;
32138;SDS011;18644;48.700;9.210;2023-06-04T06:26:55;2.25;;;1.88;;
32138;SDS011;18644;48.700;9.210;2023-06-04T06:29:22;2.45;;;1.75;;
32138;SDS011;18644;48.700;9.210;2023-06-04T06:31:49;1.95;;;1.40;;
32138;SDS011;18644;48.700;9.210;2023-06-04T06:34:16;3.00;;;1.60;;
32138;SDS011;18644;48.700;9.210;2023-06-04T06:36:44;1.75;;;1.42;;
32138;SDS011;18644;48.700;9.210;2023-06-04T06:39:11;1.58;;;1.40;;
32138;SDS011;18644;48.700;9.210;2023-06-04T06:41:38;2.25;;;1.52;;
32138;SDS011;18644;48.700;9.210;2023-06-04T06:44:05;11.55;;;1.90;;
32138;SDS011;18644;48.700;9.210;2023-06-04T06:46:32;2.53;;;1.50;;
32138;SDS011;18644;48.700;9.210;2023-06-04T06:48:59;3.03;;;1.50;;
32138;SDS011;18644;48.700;9.210;2023-06-04T06:51:26;1.33;;;1.17;;
32138;SDS011;18644;48.700;9.210;2023-06-04T06:53:55;2.67;;;1.73;;
32138;SDS011;18644;48.700;9.210;2023-06-04T06:56:22;1.92;;;1.45;;
32138;SDS011;18644;48.700;9.210;2023-06-04T06:58:48;1.58;;;1.30;;
32138;SDS011;18644;48.700;9.210;2023-06-04T07:01:16;2.53;;;1.60;;
32138;SDS011;18644;48.700;9.210;2023-06-04T07:03:43;2.70;;;1.60;;
32138;SDS011;18644;48.700;9.210;2023-06-04T07:06:10;1.83;;;1.50;;
32138;SDS011;18644;48.700;9.210;2023-06-04T07:08:37;2.25;;;1.42;;
32138;SDS011;18644;48.700;9.210;2023-06-04T07:11:05;1.80;;;1.45;;
32138;SDS011;18644;48.700;9.210;2023-06-04T07:13:36;2.22;;;1.35;;
32138;SDS011;18644;48.700;9.210;2023-06-04T07:16:04;2.20;;;1.60;;
32138;SDS011;18644;48.700;9.210;2023-06-04T07:18:31;2.10;;;1.35;;
32138;SDS011;18644;48.700;9.210;2023-06-04T07:20:58;1.83;;;1.40;;
32138;SDS011;18644;48.700;9.210;2023-06-04T07:23:25;1.95;;;1.40;;
32138;SDS011;18644;48.700;9.210;2023-06-04T07:25:52;3.60;;;1.80;;
32138;SDS011;18644;48.700;9.210;2023-06-04T07:28:20;7.35;;;1.83;;
32138;SDS011;18644;48.700;9.210;2023-06-04T07:30:47;8.82;;;1.58;;
32138;SDS011;18644;48.700;9.210;2023-06-04T07:33:14;2.55;;;1.52;;
32138;SDS011;18644;48.700;9.210;2023-06-04T07:35:41;1.90;;;1.45;;
32138;SDS011;18644;48.700;9.210;2023-06-04T07:38:08;2.47;;;1.30;;
32138;SDS011;18644;48.700;9.210;2023-06-04T07:40:35;1.75;;;1.60;;
32138;SDS011;18644;48.700;9.210;2023-06-04T07:43:02;3.83;;;1.77;;
32138;SDS011;18644;48.700;9.210;2023-06-04T07:45:30;2.97;;;1.70;;
32138;SDS011;18644;48.700;9.210;2023-06-04T07:47:57;1.77;;;1.50;;
32138;SDS011;18644;48.700;9.210;2023-06-04T07:50:24;2.05;;;1.63;;
32138;SDS011;18644;48.700;9.210;2023-06-04T07:52:51;1.92;;;1.40;;
32138;SDS011;18644;48.700;9.210;2023-06-04T07:55:18;6.85;;;2.10;;
32138;SDS011;18644;48.700;9.210;2023-06-04T07:57:45;3.38;;;1.40;;
32138;SDS011;18644;48.700;9.210;2023-06-04T08:00:13;2.10;;;1.75;;
32138;SDS011;18644;48.700;9.210;2023-06-04T08:02:44;1.92;;;1.40;;
32138;SDS011;18644;48.700;9.210;2023-06-04T08:05:10;1.92;;;1.55;;
32138;SDS011;18644;48.700;9.210;2023-06-04T08:07:39;3.03;;;1.50;;
32138;SDS011;18644;48.700;9.210;2023-06-04T08:10:07;3.60;;;2.03;;
32138;SDS011;18644;48.700;9.210;2023-06-04T08:12:35;2.22;;;1.55;;
32138;SDS011;18644;48.700;9.210;2023-06-04T08:15:02;4.03;;;1.90;;
32138;SDS011;18644;48.700;9.210;2023-06-04T08:17:30;2.10;;;1.58;;
32138;SDS011;18644;48.700;9.210;2023-06-04T08:19:59;1.90;;;1.70;;
32138;SDS011;18644;48.700;9.210;2023-06-04T08:22:26;2.10;;;1.52;;
32138;SDS011;18644;48.700;9.210;2023-06-04T08:24:54;2.03;;;1.58;;
32138;SDS011;18644;48.700;9.210;2023-06-04T08:27:21;1.80;;;1.40;;
32138;SDS011;18644;48.700;9.210;2023-06-04T08:29:48;1.67;;;1.50;;
32138;SDS011;18644;48.700;9.210;2023-06-04T08:32:15;1.30;;;1.20;;
32138;SDS011;18644;48.700;9.210;2023-06-04T08:34:42;3.83;;;1.75;;
32138;SDS011;18644;48.700;9.210;2023-06-04T08:37:10;1.67;;;1.30;;
32138;SDS011;18644;48.700;9.210;2023-06-04T08:39:37;2.58;;;1.60;;
32138;SDS011;18644;48.700;9.210;2023-06-04T08:42:04;1.70;;;1.40;;
32138;SDS011;18644;48.700;9.210;2023-06-04T08:44:33;3.00;;;1.48;;
32138;SDS011;18644;48.700;9.210;2023-06-04T08:47:02;1.60;;;1.40;;
32138;SDS011;18644;48.700;9.210;2023-06-04T08:49:32;1.95;;;1.52;;
32138;SDS011;18644;48.700;9.210;2023-06-04T08:52:02;1.30;;;1.20;;
32138;SDS011;18644;48.700;9.210;2023-06-04T08:54:30;3.75;;;1.80;;
32138;SDS011;18644;48.700;9.210;2023-06-04T08:56:58;2.08;;;1.48;;
32138;SDS011;18644;48.700;9.210;2023-06-04T08:59:27;1.52;;;1.42;;
32138;SDS011;18644;48.700;9.210;2023-06-04T09:01:54;1.80;;;1.60;;
32138;SDS011;18644;48.700;9.210;2023-06-04T09:04:21;2.53;;;1.70;;
32138;SDS011;18644;48.700;9.210;2023-06-04T09:06:51;1.63;;;1.50;;
32138;SDS011;18644;48.700;9.210;2023-06-04T09:09:19;2.60;;;1.60;;
32138;SDS011;18644;48.700;9.210;2023-06-04T09:11:50;2.85;;;1.90;;
32138;SDS011;18644;48.700;9.210;2023-06-04T09:14:19;2.67;;;1.73;;
32138;SDS011;18644;48.700;9.210;2023-06-04T09:16:46;2.00;;;1.58;;
32138;SDS011;18644;48.700;9.210;2023-06-04T09:19:15;2.00;;;1.48;;
32138;SDS011;18644;48.700;9.210;2023-06-04T09:21:48;4.68;;;1.83;;
32138;SDS011;18644;48.700;9.210;2023-06-04T09:24:17;5.78;;;1.83;;
32138;SDS011;18644;48.700;9.210;2023-06-04T09:26:44;2.50;;;1.77;;
32138;SDS011;18644;48.700;9.210;2023-06-04T09:29:13;3.42;;;1.63;;
32138;SDS011;18644;48.700;9.210;2023-06-04T09:31:40;3.67;;;1.50;;
32138;SDS011;18644;48.700;9.210;2023-06-04T09:34:07;3.50;;;2.15;;
32138;SDS011;18644;48.700;9.210;2023-06-04T09:36:35;2.45;;;1.55;;
32138;SDS011;18644;48.700;9.210;2023-06-04T09:39:03;3.13;;;2.20;;
32138;SDS011;18644;48.700;9.210;2023-06-04T09:41:42;3.95;;;1.60;;
32138;SDS011;18644;48.700;9.210;2023-06-04T09:44:09;2.50;;;2.20;;
32138;SDS011;18644;48.700;9.210;2023-06-04T09:46:38;3.50;;;1.98;;
32138;SDS011;18644;48.700;9.210;2023-06-04T09:49:05;5.40;;;2.03;;
32138;SDS011;18644;48.700;9.210;2023-06-04T09:51:32;2.15;;;1.95;;
32138;SDS011;18644;48.700;9.210;2023-06-04T09:54:00;2.15;;;1.83;;
32138;SDS011;18644;48.700;9.210;2023-06-04T09:56:28;6.60;;;1.85;;
32138;SDS011;18644;48.700;9.210;2023-06-04T09:58:57;1.98;;;1.45;;
32138;SDS011;18644;48.700;9.210;2023-06-04T10:01:28;2.95;;;1.95;;
32138;SDS011;18644;48.700;9.210;2023-06-04T10:03:57;2.20;;;1.60;;
32138;SDS011;18644;48.700;9.210;2023-06-04T10:06:30;2.70;;;1.95;;
32138;SDS011;18644;48.700;9.210;2023-06-04T10:09:03;1.95;;;1.60;;
32138;SDS011;18644;48.700;9.210;2023-06-04T10:11:34;2.10;;;1.90;;
32138;SDS011;18644;48.700;9.210;2023-06-04T10:14:02;1.75;;;1.48;;
32138;SDS011;18644;48.700;9.210;2023-06-04T10:16:34;1.80;;;1.52;;
32138;SDS011;18644;48.700;9.210;2023-06-04T10:19:06;4.10;;;1.77;;
32138;SDS011;18644;48.700;9.210;2023-06-04T10:21:34;1.92;;;1.75;;
32138;SDS011;18644;48.700;9.210;2023-06-04T10:24:02;2.50;;;1.77;;
32138;SDS011;18644;48.700;9.210;2023-06-04T10:26:30;2.92;;;2.10;;
32138;SDS011;18644;48.700;9.210;2023-06-04T10:29:00;2.20;;;1.90;;
32138;SDS011;18644;48.700;9.210;2023-06-04T10:31:28;1.92;;;1.52;;
32138;SDS011;18644;48.700;9.210;2023-06-04T10:33:55;2.72;;;1.80;;
32138;SDS011;18644;48.700;9.210;2023-06-04T10:36:24;2.15;;;1.80;;
32138;SDS011;18644;48.700;9.210;2023-06-04T10:38:52;2.13;;;1.85;;
32138;SDS011;18644;48.700;9.210;2023-06-04T10:41:21;2.25;;;2.05;;
32138;SDS011;18644;48.700;9.210;2023-06-04T10:43:48;2.25;;;1.83;;
32138;SDS011;18644;48.700;9.210;2023-06-04T10:46:17;7.30;;;2.40;;
32138;SDS011;18644;48.700;9.210;2023-06-04T10:48:46;7.05;;;2.45;;
32138;SDS011;18644;48.700;9.210;2023-06-04T10:51:15;2.28;;;2.08;;
32138;SDS011;18644;48.700;9.210;2023-06-04T10:53:44;1.90;;;1.77;;
32138;SDS011;18644;48.700;9.210;2023-06-04T10:56:11;5.18;;;2.20;;
32138;SDS011;18644;48.700;9.210;2023-06-04T10:58:37;3.03;;;1.98;;
32138;SDS011;18644;48.700;9.210;2023-06-04T11:01:06;2.92;;;2.10;;
32138;SDS011;18644;48.700;9.210;2023-06-04T11:03:36;3.00;;;1.98;;
32138;SDS011;18644;48.700;9.210;2023-06-04T11:06:14;4.30;;;2.60;;
32138;SDS011;18644;48.700;9.210;2023-06-04T11:08:44;2.83;;;2.10;;
32138;SDS011;18644;48.700;9.210;2023-06-04T11:11:11;2.80;;;2.30;;
32138;SDS011;18644;48.700;9.210;2023-06-04T11:13:38;2.65;;;2.20;;
32138;SDS011;18644;48.700;9.210;2023-06-04T11:16:14;2.28;;;2.05;;
32138;SDS011;18644;48.700;9.210;2023-06-04T11:18:42;2.70;;;2.13;;
32138;SDS011;18644;48.700;9.210;2023-06-04T11:21:10;2.20;;;1.98;;
32138;SDS011;18644;48.700;9.210;2023-06-04T11:23:39;2.53;;;2.13;;
32138;SDS011;18644;48.700;9.210;2023-06-04T11:26:08;2.67;;;2.28;;
32138;SDS011;18644;48.700;9.210;2023-06-04T11:28:35;1.85;;;1.65;;
32138;SDS011;18644;48.700;9.210;2023-06-04T11:31:02;2.05;;;1.75;;
32138;SDS011;18644;48.700;9.210;2023-06-04T11:33:40;4.25;;;2.05;;
32138;SDS011;18644;48.700;9.210;2023-06-04T11:36:08;2.08;;;1.88;;
32138;SDS011;18644;48.700;9.210;2023-06-04T11:38:36;6.70;;;2.10;;
32138;SDS011;18644;48.700;9.210;2023-06-04T11:41:03;2.35;;;2.15;;
32138;SDS011;18644;48.700;9.210;2023-06-04T11:43:33;2.28;;;2.08;;
32138;SDS011;18644;48.700;9.210;2023-06-04T11:46:05;2.78;;;2.15;;
32138;SDS011;18644;48.700;9.210;2023-06-04T11:48:32;2.60;;;2.30;;
32138;SDS011;18644;48.700;9.210;2023-06-04T11:51:04;3.45;;;2.10;;
32138;SDS011;18644;48.700;9.210;2023-06-04T11:53:34;2.38;;;1.88;;
32138;SDS011;18644;48.700;9.210;2023-06-04T11:56:02;2.35;;;2.00;;
32138;SDS011;18644;48.700;9.210;2023-06-04T11:58:30;2.50;;;2.15;;
32138;SDS011;18644;48.700;9.210;2023-06-04T12:00:59;2.33;;;2.13;;
32138;SDS011;18644;48.700;9.210;2023-06-04T12:03:36;2.10;;;1.90;;
32138;SDS011;18644;48.700;9.210;2023-06-04T12:06:11;3.30;;;2.00;;
32138;SDS011;18644;48.700;9.210;2023-06-04T12:08:47;2.30;;;1.70;;
32138;SDS011;18644;48.700;9.210;2023-06-04T12:11:23;2.65;;;2.20;;
32138;SDS011;18644;48.700;9.210;2023-06-04T12:13:58;2.17;;;1.70;;
32138;SDS011;18644;48.700;9.210;2023-06-04T12:16:26;2.03;;;1.83;;
32138;SDS011;18644;48.700;9.210;2023-06-04T12:19:04;2.40;;;2.10;;
32138;SDS011;18644;48.700;9.210;2023-06-04T12:21:33;1.98;;;1.75;;
32138;SDS011;18644;48.700;9.210;2023-06-04T12:24:06;2.42;;;2.20;;
32138;SDS011;18644;48.700;9.210;2023-06-04T12:26:36;2.55;;;2.08;;
32138;SDS011;18644;48.700;9.210;2023-06-04T12:29:11;2.90;;;2.00;;
32138;SDS011;18644;48.700;9.210;2023-06-04T12:31:40;3.47;;;2.10;;
32138;SDS011;18644;48.700;9.210;2023-06-04T12:34:09;1.95;;;1.70;;
32138;SDS011;18644;48.700;9.210;2023-06-04T12:36:37;3.08;;;2.13;;
32138;SDS011;18644;48.700;9.210;2023-06-04T12:39:06;2.20;;;1.73;;
32138;SDS011;18644;48.700;9.210;2023-06-04T12:41:34;2.63;;;1.77;;
32138;SDS011;18644;48.700;9.210;2023-06-04T12:44:01;3.15;;;2.17;;
32138;SDS011;18644;48.700;9.210;2023-06-04T12:46:29;2.63;;;1.90;;
32138;SDS011;18644;48.700;9.210;2023-06-04T12:48:56;2.00;;;1.73;;
32138;SDS011;18644;48.700;9.210;2023-06-04T12:51:23;2.03;;;1.70;;
32138;SDS011;18644;48.700;9.210;2023-06-04T12:53:50;5.70;;;2.00;;
32138;SDS011;18644;48.700;9.210;2023-06-04T12:56:18;2.80;;;1.73;;
32138;SDS011;18644;48.700;9.210;2023-06-04T12:58:45;2.13;;;1.92;;
32138;SDS011;18644;48.700;9.210;2023-06-04T13:01:12;1.58;;;1.48;;
32138;SDS011;18644;48.700;9.210;2023-06-04T13:03:40;1.92;;;1.83;;
32138;SDS011;18644;48.700;9.210;2023-06-04T13:06:07;2.45;;;1.88;;
32138;SDS011;18644;48.700;9.210;2023-06-04T13:08:35;2.35;;;2.15;;
32138;SDS011;18644;48.700;9.210;2023-06-04T13:11:03;2.08;;;1.83;;
32138;SDS011;18644;48.700;9.210;2023-06-04T13:13:30;2.35;;;2.03;;
32138;SDS011;18644;48.700;9.210;2023-06-04T13:15:57;2.75;;;2.05;;
32138;SDS011;18644;48.700;9.210;2023-06-04T13:18:24;3.25;;;1.90;;
32138;SDS011;18644;48.700;9.210;2023-06-04T13:20:54;2.08;;;1.70;;
32138;SDS011;18644;48.700;9.210;2023-06-04T13:23:21;5.30;;;2.28;;
32138;SDS011;18644;48.700;9.210;2023-06-04T13:25:48;2.55;;;1.92;;
32138;SDS011;18644;48.700;9.210;2023-06-04T13:28:15;3.85;;;1.83;;
32138;SDS011;18644;48.700;9.210;2023-06-04T13:30:43;2.90;;;1.92;;
32138;SDS011;18644;48.700;9.210;2023-06-04T13:33:10;2.70;;;2.10;;
32138;SDS011;18644;48.700;9.210;2023-06-04T13:35:37;2.53;;;2.10;;
32138;SDS011;18644;48.700;9.210;2023-06-04T13:38:08;2.28;;;2.05;;
32138;SDS011;18644;48.700;9.210;2023-06-04T13:40:37;2.83;;;2.03;;
32138;SDS011;18644;48.700;9.210;2023-06-04T13:43:04;2.60;;;2.15;;
32138;SDS011;18644;48.700;9.210;2023-06-04T13:45:33;2.25;;;2.00;;
32138;SDS011;18644;48.700;9.210;2023-06-04T13:48:00;2.65;;;2.25;;
32138;SDS011;18644;48.700;9.210;2023-06-04T13:50:31;2.17;;;1.90;;
32138;SDS011;18644;48.700;9.210;2023-06-04T13:52:58;3.08;;;2.10;;
32138;SDS011;18644;48.700;9.210;2023-06-04T13:55:26;2.63;;;2.00;;
32138;SDS011;18644;48.700;9.210;2023-06-04T13:57:53;2.78;;;2.30;;
32138;SDS011;18644;48.700;9.210;2023-06-04T14:00:20;2.97;;;2.30;;
32138;SDS011;18644;48.700;9.210;2023-06-04T14:02:46;3.10;;;2.40;;
32138;SDS011;18644;48.700;9.210;2023-06-04T14:05:14;2.67;;;1.90;;
32138;SDS011;18644;48.700;9.210;2023-06-04T14:07:41;3.00;;;1.70;;
32138;SDS011;18644;48.700;9.210;2023-06-04T14:10:09;2.17;;;1.88;;
32138;SDS011;18644;48.700;9.210;2023-06-04T14:12:38;2.53;;;2.20;;
32138;SDS011;18644;48.700;9.210;2023-06-04T14:15:06;1.65;;;1.55;;
32138;SDS011;18644;48.700;9.210;2023-06-04T14:17:36;2.20;;;2.00;;
32138;SDS011;18644;48.700;9.210;2023-06-04T14:20:03;3.40;;;1.95;;
32138;SDS011;18644;48.700;9.210;2023-06-04T14:22:33;2.55;;;2.08;;
32138;SDS011;18644;48.700;9.210;2023-06-04T14:25:01;3.03;;;2.10;;
32138;SDS011;18644;48.700;9.210;2023-06-04T14:27:28;2.13;;;1.92;;
32138;SDS011;18644;48.700;9.210;2023-06-04T14:29:57;3.40;;;1.88;;
32138;SDS011;18644;48.700;9.210;2023-06-04T14:32:24;2.00;;;1.80;;
32138;SDS011;18644;48.700;9.210;2023-06-04T14:34:51;2.33;;;2.10;;
32138;SDS011;18644;48.700;9.210;2023-06-04T14:37:18;2.55;;;2.15;;
32138;SDS011;18644;48.700;9.210;2023-06-04T14:39:46;2.30;;;1.80;;
32138;SDS011;18644;48.700;9.210;2023-06-04T14:42:13;2.17;;;1.83;;
32138;SDS011;18644;48.700;9.210;2023-06-04T14:44:40;2.42;;;2.10;;
32138;SDS011;18644;48.700;9.210;2023-06-04T14:47:08;3.28;;;1.92;;
32138;SDS011;18644;48.700;9.210;2023-06-04T14:49:36;2.40;;;2.20;;
32138;SDS011;18644;48.700;9.210;2023-06-04T14:52:03;2.20;;;2.00;;
32138;SDS011;18644;48.700;9.210;2023-06-04T14:54:31;2.38;;;1.92;;